메인 페이지
METAR-TAF:

METAR-TAF

공항 :

Hammond Northshore Regional Airport

Hammond, 루이지애나, 미국

위도: 30-31-15N, 경도: 090-25-03W, 고도: 13m

현재 날씨관측

예보는 26분 전, 22:55시(UTC)에 발표되었습니다.
10kt, 순간 최대 풍속 14kt
온도 26°C
습도 65%
기압 1013 hPa
시정: 16.1km
고도 11000ft 상공 구름 보통

METAR: KHDC 242255Z AUTO 17010G14KT 10SM SCT110 26/19 A2990 RMK AO2

시각: 18:21 (23:21 UTC)

예보

예보는 2 시간 29분 전, 20:52시(UTC)에 발표되었습니다.
예보 대상 시간: 24일 21시부터 25일 18시까지 (UTC)
11kt, 순간 최대 풍속 15kt
시정: 10km
고도 2400ft 상공 구름 보통
고도 3000ft 상공 구름 많음
고도 6000ft 상공 흐림
25일 0600시부터 (UTC)
남동5kt
시정: 10km
고도 2000ft 상공 구름 보통, 적란운.
고도 4000ft 상공 구름 많음
시계 내 뇌우
25일 1000시부터 (UTC)
남동6kt
시정: 10km
고도 1500ft 상공 구름 보통, 적란운.
고도 3000ft 상공 흐림
시계 내 뇌우
25일 1200시부터 (UTC)
남남동12kt
시정: 10km
고도 2500ft 상공 흐림, 적란운.
강한소나기, 시계 내 뇌우

TAF: KHDC 242052Z 2421/2518 18011G15KT P6SM SCT024 BKN030 OVC060 FM250600 14005KT P6SM VCTS SCT020CB BKN040 FM251000 14006KT P6SM VCTS SCT015CB OVC030 FM251200 15012KT P6SM +SHRA VCTS OVC025CB

4,000개 이상의 공항 관측 자료 및 예보 (METAR 및 TAF 보고).

지도상에서 검색 가능한 기상관측소가 노란 점과 빨간 점으로 표시되어 있습니다.

기상관측소 명을 보려면 표시 위로 마우스를 이동하세요.

날씨 관측과 예보를 보려면 클릭하세요.

지도 변경 : 확대하려면 엑스 표시가 있는 녹색 버튼, 축소하려면 빼기 표시가 있는 녹색 버튼, 다음 페이지의 지도를 보려면 녹색 화살표를 클릭하세요.


METAR-TAF: